createdAt,value
2022-09-24T00:00:57.876Z,4.90
2022-09-24T00:03:26.048Z,5.80
2022-09-24T00:05:53.181Z,5.27
2022-09-24T00:08:20.865Z,5.20
2022-09-24T00:10:48.926Z,6.17
2022-09-24T00:13:17.871Z,5.40
2022-09-24T00:15:50.047Z,5.10
2022-09-24T00:18:18.213Z,6.13
2022-09-24T00:20:45.004Z,5.83
2022-09-24T00:23:12.278Z,5.57
2022-09-24T00:26:04.046Z,5.30
2022-09-24T00:28:31.409Z,5.80
2022-09-24T00:30:59.280Z,5.67
2022-09-24T00:33:28.211Z,5.00
2022-09-24T00:36:04.462Z,5.30
2022-09-24T00:38:34.633Z,6.03
2022-09-24T00:41:01.893Z,5.80
2022-09-24T00:43:31.114Z,4.80
2022-09-24T00:46:08.192Z,5.13
2022-09-24T00:48:34.794Z,5.10
2022-09-24T00:51:03.231Z,5.70
2022-09-24T00:53:33.146Z,5.53
2022-09-24T00:56:01.280Z,5.53
2022-09-24T00:58:29.536Z,6.10
2022-09-24T01:00:59.540Z,6.00
2022-09-24T01:03:26.820Z,6.03
2022-09-24T01:05:53.370Z,5.13
2022-09-24T01:08:21.193Z,5.80
2022-09-24T01:11:13.372Z,5.77
2022-09-24T01:13:49.668Z,5.60
2022-09-24T01:16:38.200Z,5.50
2022-09-24T01:19:18.252Z,5.10
2022-09-24T01:21:48.072Z,5.70
2022-09-24T01:24:36.028Z,4.80
2022-09-24T01:27:24.056Z,4.40
2022-09-24T01:29:58.104Z,5.53
2022-09-24T01:32:26.751Z,5.73
2022-09-24T01:35:02.698Z,5.77
2022-09-24T01:37:31.825Z,5.40
2022-09-24T01:39:58.821Z,5.03
2022-09-24T01:42:27.592Z,5.10
2022-09-24T01:44:55.087Z,5.37
2022-09-24T01:47:34.091Z,5.60
2022-09-24T01:50:01.901Z,5.10
2022-09-24T01:52:33.675Z,5.30
2022-09-24T01:55:01.718Z,4.43
2022-09-24T01:57:32.046Z,5.07
2022-09-24T02:00:09.847Z,4.90
2022-09-24T02:02:44.212Z,5.07
2022-09-24T02:05:24.885Z,5.67
2022-09-24T02:08:10.223Z,4.97
2022-09-24T02:10:46.450Z,4.50
2022-09-24T02:13:14.157Z,5.67
2022-09-24T02:15:43.886Z,5.00
2022-09-24T02:18:14.899Z,4.70
2022-09-24T02:20:43.008Z,4.67
2022-09-24T02:23:12.008Z,5.40
2022-09-24T02:25:54.238Z,4.17
2022-09-24T02:28:21.232Z,4.93
2022-09-24T02:30:52.105Z,4.67
2022-09-24T02:33:37.179Z,5.00
2022-09-24T02:36:04.025Z,4.53
2022-09-24T02:38:30.495Z,5.03
2022-09-24T02:40:57.517Z,4.70
2022-09-24T02:43:24.305Z,4.63
2022-09-24T02:45:51.027Z,5.03
2022-09-24T02:48:17.693Z,5.20
2022-09-24T02:50:44.143Z,5.03
2022-09-24T02:53:10.681Z,4.50
2022-09-24T02:55:37.203Z,4.80
2022-09-24T02:58:03.650Z,4.13
2022-09-24T03:00:30.087Z,4.43
2022-09-24T03:02:56.648Z,5.30
2022-09-24T03:05:23.144Z,4.40
2022-09-24T03:07:50.223Z,5.60
2022-09-24T03:10:16.771Z,5.73
2022-09-24T03:12:43.736Z,5.60
2022-09-24T03:15:11.229Z,5.43
2022-09-24T03:17:37.688Z,5.40
2022-09-24T03:20:04.533Z,5.47
2022-09-24T03:22:31.095Z,4.50
2022-09-24T03:24:57.533Z,4.40
2022-09-24T03:27:24.078Z,4.33
2022-09-24T03:30:09.143Z,4.87
2022-09-24T03:32:36.114Z,4.60
2022-09-24T03:35:02.735Z,5.40
2022-09-24T03:37:29.349Z,4.30
2022-09-24T03:39:55.839Z,4.43
2022-09-24T03:42:22.340Z,4.90
2022-09-24T03:44:48.779Z,4.57
2022-09-24T03:47:15.313Z,5.63
2022-09-24T03:49:42.409Z,4.63
2022-09-24T03:52:08.938Z,4.87
2022-09-24T03:54:35.862Z,5.10
2022-09-24T03:57:02.381Z,4.83
2022-09-24T03:59:28.796Z,4.77
2022-09-24T04:01:55.497Z,5.13
2022-09-24T04:04:21.947Z,5.50
2022-09-24T04:06:48.537Z,5.40
2022-09-24T04:09:15.036Z,4.77
2022-09-24T04:11:41.561Z,4.93
2022-09-24T04:14:08.125Z,5.00
2022-09-24T04:16:34.737Z,4.50
2022-09-24T04:19:02.035Z,4.87
2022-09-24T04:21:30.408Z,4.60
2022-09-24T04:23:56.930Z,4.77
2022-09-24T04:26:23.381Z,5.33
2022-09-24T04:28:50.465Z,4.77
2022-09-24T04:31:17.018Z,4.13
2022-09-24T04:33:43.655Z,4.70
2022-09-24T04:36:10.327Z,5.20
2022-09-24T04:38:36.769Z,4.43
2022-09-24T04:41:07.876Z,4.07
2022-09-24T04:43:34.788Z,4.40
2022-09-24T04:46:02.046Z,4.40
2022-09-24T04:48:28.720Z,4.80
2022-09-24T04:50:55.249Z,5.00
2022-09-24T04:53:23.164Z,4.30
2022-09-24T04:55:49.968Z,5.10
2022-09-24T04:58:16.675Z,4.40
2022-09-24T05:00:43.499Z,5.13
2022-09-24T05:03:10.199Z,5.67
2022-09-24T05:05:36.767Z,5.70
2022-09-24T05:08:04.786Z,4.20
2022-09-24T05:10:33.097Z,4.57
2022-09-24T05:12:59.657Z,4.90
2022-09-24T05:15:26.355Z,4.67
2022-09-24T05:17:52.855Z,5.20
2022-09-24T05:20:19.789Z,4.93
2022-09-24T05:22:48.011Z,5.10
2022-09-24T05:25:15.647Z,5.00
2022-09-24T05:27:46.162Z,5.03
2022-09-24T05:30:13.002Z,5.57
2022-09-24T05:32:39.857Z,4.67
2022-09-24T05:35:08.250Z,5.60
2022-09-24T05:37:35.994Z,4.60
2022-09-24T05:40:23.226Z,4.63
2022-09-24T05:42:50.744Z,5.47
2022-09-24T05:45:18.119Z,4.70
2022-09-24T05:47:45.845Z,4.77
2022-09-24T05:50:13.736Z,5.73
2022-09-24T05:52:40.723Z,5.53
2022-09-24T05:55:09.407Z,5.20
2022-09-24T05:57:35.883Z,4.93
2022-09-24T06:00:02.521Z,5.33
2022-09-24T06:02:29.028Z,5.10
2022-09-24T06:04:55.620Z,5.10
2022-09-24T06:07:22.038Z,4.97
2022-09-24T06:09:49.157Z,5.13
2022-09-24T06:12:15.711Z,5.13
2022-09-24T06:14:42.597Z,4.37
2022-09-24T06:17:09.967Z,4.40
2022-09-24T06:19:36.529Z,6.37
2022-09-24T06:22:03.104Z,4.90
2022-09-24T06:24:29.767Z,5.90
2022-09-24T06:26:56.692Z,5.07
2022-09-24T06:29:23.489Z,5.30
2022-09-24T06:31:50.267Z,4.90
2022-09-24T06:34:16.747Z,5.27
2022-09-24T06:36:43.594Z,5.00
2022-09-24T06:39:10.088Z,5.17
2022-09-24T06:41:36.636Z,5.87
2022-09-24T06:44:03.138Z,4.23
2022-09-24T06:46:30.614Z,4.73
2022-09-24T06:48:57.103Z,4.90
2022-09-24T06:51:23.661Z,5.33
2022-09-24T06:53:53.248Z,5.00
2022-09-24T06:56:19.837Z,4.63
2022-09-24T06:58:46.688Z,5.13
2022-09-24T07:01:13.369Z,5.80
2022-09-24T07:03:40.310Z,5.30
2022-09-24T07:06:07.131Z,4.97
2022-09-24T07:08:34.110Z,4.50
2022-09-24T07:11:00.845Z,5.10
2022-09-24T07:13:27.793Z,5.00
2022-09-24T07:15:54.402Z,4.67
2022-09-24T07:18:21.184Z,4.57
2022-09-24T07:20:55.357Z,4.77
2022-09-24T07:23:22.434Z,4.60
2022-09-24T07:25:49.304Z,4.73
2022-09-24T07:28:16.217Z,3.93
2022-09-24T07:30:42.764Z,5.10
2022-09-24T07:33:09.301Z,4.87
2022-09-24T07:35:39.192Z,4.57
2022-09-24T07:38:07.823Z,4.07
2022-09-24T07:40:34.894Z,3.80
2022-09-24T07:43:01.362Z,4.03
2022-09-24T07:45:29.668Z,3.90
2022-09-24T07:48:04.929Z,3.87
2022-09-24T07:50:33.574Z,3.93
2022-09-24T07:53:00.638Z,3.57
2022-09-24T07:55:27.387Z,4.00
2022-09-24T07:57:55.426Z,5.13
2022-09-24T08:00:23.427Z,5.10
2022-09-24T08:02:51.924Z,4.00
2022-09-24T08:05:18.358Z,5.20
2022-09-24T08:07:55.465Z,4.17
2022-09-24T08:10:22.928Z,4.87
2022-09-24T08:12:49.703Z,4.13
2022-09-24T08:15:16.442Z,4.07
2022-09-24T08:17:42.912Z,4.53
2022-09-24T08:20:09.970Z,4.00
2022-09-24T08:22:36.568Z,4.10
2022-09-24T08:25:04.297Z,3.97
2022-09-24T08:27:33.030Z,4.10
2022-09-24T08:30:00.658Z,4.77
2022-09-24T08:32:29.249Z,4.37
2022-09-24T08:34:55.720Z,3.80
2022-09-24T08:37:22.540Z,4.40
2022-09-24T08:39:49.036Z,4.40
2022-09-24T08:42:28.759Z,4.30
2022-09-24T08:45:15.445Z,3.70
2022-09-24T08:48:11.563Z,3.93
2022-09-24T08:50:44.033Z,3.57
2022-09-24T08:53:24.437Z,4.77
2022-09-24T08:55:53.283Z,4.63
2022-09-24T08:58:31.841Z,5.50
2022-09-24T09:01:35.891Z,4.23
2022-09-24T09:04:25.828Z,4.30
2022-09-24T09:07:25.399Z,4.73
2022-09-24T09:09:57.830Z,5.10
2022-09-24T09:12:45.454Z,4.53
2022-09-24T09:15:14.493Z,4.20
2022-09-24T09:17:48.371Z,4.33
2022-09-24T09:20:34.016Z,3.87
2022-09-24T09:23:05.818Z,4.30
2022-09-24T09:25:36.299Z,4.57
2022-09-24T09:28:17.556Z,4.17
2022-09-24T09:30:53.258Z,4.60
2022-09-24T09:33:33.296Z,4.90
2022-09-24T09:36:35.408Z,4.10
2022-09-24T09:39:23.553Z,3.97
2022-09-24T09:41:59.888Z,4.40
2022-09-24T09:44:28.489Z,4.00
2022-09-24T09:47:28.997Z,4.10
2022-09-24T09:49:57.150Z,4.20
2022-09-24T09:52:27.268Z,3.80
2022-09-24T09:54:53.783Z,4.30
2022-09-24T09:57:22.114Z,3.80
2022-09-24T09:59:49.948Z,4.03
2022-09-24T10:02:28.894Z,5.17
2022-09-24T10:05:01.590Z,4.07
2022-09-24T10:07:28.556Z,5.00
2022-09-24T10:10:04.472Z,4.10
2022-09-24T10:12:31.189Z,5.00
2022-09-24T10:15:02.411Z,4.70
2022-09-24T10:17:31.986Z,4.93
2022-09-24T10:20:00.367Z,4.03
2022-09-24T10:22:27.266Z,4.73
2022-09-24T10:24:56.341Z,4.30
2022-09-24T10:27:37.031Z,4.57
2022-09-24T10:30:33.476Z,4.50
2022-09-24T10:33:05.057Z,4.10
2022-09-24T10:35:38.612Z,4.20
2022-09-24T10:38:22.242Z,3.87
2022-09-24T10:40:48.968Z,3.80
2022-09-24T10:43:20.824Z,4.33
2022-09-24T10:46:09.322Z,3.80
2022-09-24T10:48:43.923Z,3.80
2022-09-24T10:51:28.997Z,4.77
2022-09-24T10:54:33.254Z,4.40
2022-09-24T10:57:00.251Z,4.93
2022-09-24T10:59:47.924Z,4.47
2022-09-24T11:02:51.903Z,4.80
2022-09-24T11:05:22.427Z,4.30
2022-09-24T11:08:20.593Z,4.40
2022-09-24T11:11:10.187Z,4.50
2022-09-24T11:13:54.639Z,3.90
2022-09-24T11:16:50.979Z,5.40
2022-09-24T11:19:48.287Z,4.47
2022-09-24T11:22:17.721Z,6.47
2022-09-24T11:25:02.400Z,5.73
2022-09-24T11:27:56.996Z,4.80
2022-09-24T11:30:51.885Z,5.00
2022-09-24T11:33:41.229Z,5.17
2022-09-24T11:36:20.932Z,8.10
2022-09-24T11:39:07.217Z,6.27
2022-09-24T11:41:57.733Z,4.17
2022-09-24T11:44:52.347Z,6.13
2022-09-24T11:47:27.664Z,4.33
2022-09-24T11:50:12.841Z,4.33
2022-09-24T11:52:53.181Z,4.63
2022-09-24T11:55:31.734Z,4.30
2022-09-24T11:58:21.071Z,4.30
2022-09-24T12:00:55.400Z,4.63
2022-09-24T12:03:48.176Z,3.83
2022-09-24T12:06:42.160Z,4.70
2022-09-24T12:09:32.727Z,5.30
2022-09-24T12:12:16.138Z,4.27
2022-09-24T12:14:53.142Z,5.30
2022-09-24T12:17:47.607Z,5.23
2022-09-24T12:20:32.616Z,5.47
2022-09-24T12:23:07.971Z,4.30
2022-09-24T12:25:40.651Z,4.80
2022-09-24T12:28:10.296Z,4.50
2022-09-24T12:31:12.442Z,5.00
2022-09-24T12:34:07.951Z,5.00
2022-09-24T12:36:57.520Z,5.37
2022-09-24T12:39:28.695Z,5.73
2022-09-24T12:42:09.198Z,6.00
2022-09-24T12:44:48.985Z,5.70
2022-09-24T12:47:20.390Z,6.30
2022-09-24T12:50:06.260Z,6.73
2022-09-24T12:52:32.762Z,6.00
2022-09-24T12:55:02.188Z,6.90
2022-09-24T12:57:35.584Z,6.13
2022-09-24T13:00:25.474Z,6.50
2022-09-24T13:02:55.250Z,7.13
2022-09-24T13:05:21.770Z,6.77
2022-09-24T13:08:01.567Z,6.57
2022-09-24T13:10:33.175Z,6.57
2022-09-24T13:13:00.500Z,6.43
2022-09-24T13:15:29.718Z,6.27
2022-09-24T13:18:04.676Z,6.90
2022-09-24T13:20:31.866Z,6.30
2022-09-24T13:23:19.404Z,7.03
2022-09-24T13:26:08.510Z,7.53
2022-09-24T13:28:59.244Z,6.90
2022-09-24T13:31:40.650Z,7.67
2022-09-24T13:34:10.138Z,7.07
2022-09-24T13:36:47.529Z,7.60
2022-09-24T13:39:46.284Z,8.03
2022-09-24T13:42:20.724Z,7.50
2022-09-24T13:44:47.792Z,7.77
2022-09-24T13:47:33.628Z,8.00
2022-09-24T13:50:25.588Z,7.03
2022-09-24T13:53:01.109Z,7.90
2022-09-24T13:55:31.728Z,7.47
2022-09-24T13:57:58.543Z,9.20
2022-09-24T14:00:29.872Z,8.63
2022-09-24T14:03:05.332Z,8.43
2022-09-24T14:05:36.872Z,8.50
2022-09-24T14:08:11.397Z,7.77
2022-09-24T14:10:40.022Z,8.03
2022-09-24T14:13:23.682Z,8.27
2022-09-24T14:16:02.628Z,8.13
2022-09-24T14:18:29.637Z,7.40
2022-09-24T14:21:21.057Z,6.20
2022-09-24T14:23:52.280Z,7.50
2022-09-24T14:26:41.821Z,7.90
2022-09-24T14:29:19.953Z,8.00
2022-09-24T14:31:49.596Z,7.43
2022-09-24T14:34:26.688Z,8.67
2022-09-24T14:36:55.669Z,8.30
2022-09-24T14:39:26.211Z,7.60
2022-09-24T14:41:53.860Z,7.67
2022-09-24T14:44:25.736Z,8.67
2022-09-24T14:46:54.423Z,7.70
2022-09-24T14:49:30.744Z,8.30
2022-09-24T14:52:04.996Z,7.67
2022-09-24T14:54:42.460Z,8.57
2022-09-24T14:57:11.460Z,7.90
2022-09-24T14:59:39.801Z,7.70
2022-09-24T15:02:30.152Z,8.00
2022-09-24T15:05:06.236Z,8.03
2022-09-24T15:07:34.642Z,8.57
2022-09-24T15:10:03.508Z,8.50
2022-09-24T15:12:32.667Z,8.57
2022-09-24T15:15:05.182Z,8.07
2022-09-24T15:17:35.630Z,9.00
2022-09-24T15:20:03.483Z,7.60
2022-09-24T15:22:30.771Z,10.27
2022-09-24T15:25:01.557Z,9.10
2022-09-24T15:27:32.484Z,9.00
2022-09-24T15:30:01.112Z,8.03
2022-09-24T15:32:30.853Z,9.83
2022-09-24T15:34:57.617Z,9.30
2022-09-24T15:37:25.949Z,9.83
2022-09-24T15:39:56.850Z,9.10
2022-09-24T15:42:27.483Z,8.90
2022-09-24T15:44:54.669Z,8.20
2022-09-24T15:47:21.266Z,9.20
2022-09-24T15:49:47.990Z,9.07
2022-09-24T15:52:26.610Z,7.90
2022-09-24T15:54:58.352Z,7.80
2022-09-24T15:57:26.573Z,8.50
2022-09-24T15:59:53.497Z,7.30
2022-09-24T16:02:22.907Z,8.37
2022-09-24T16:04:50.268Z,8.80
2022-09-24T16:07:17.535Z,9.00
2022-09-24T16:09:44.572Z,8.00
2022-09-24T16:12:15.270Z,7.30
2022-09-24T16:14:41.808Z,7.20
2022-09-24T16:17:08.308Z,7.90
2022-09-24T16:19:34.812Z,6.20
2022-09-24T16:22:01.343Z,7.10
2022-09-24T16:24:27.879Z,6.70
2022-09-24T16:26:55.555Z,7.50
2022-09-24T16:29:22.095Z,6.83
2022-09-24T16:31:49.611Z,6.30
2022-09-24T16:34:16.060Z,6.73
2022-09-24T16:36:42.598Z,6.40
2022-09-24T16:39:09.214Z,6.70
2022-09-24T16:41:37.850Z,6.60
2022-09-24T16:44:04.878Z,7.43
2022-09-24T16:46:31.895Z,7.20
2022-09-24T16:48:58.528Z,6.30
2022-09-24T16:51:25.117Z,7.47
2022-09-24T16:53:55.640Z,8.20
2022-09-24T16:56:22.613Z,8.30
2022-09-24T16:58:49.206Z,10.77
2022-09-24T17:01:18.047Z,9.80
2022-09-24T17:03:46.684Z,19.20
2022-09-24T17:06:21.468Z,16.90
2022-09-24T17:09:06.880Z,14.97
2022-09-24T17:11:33.611Z,10.77
2022-09-24T17:14:00.905Z,9.27
2022-09-24T17:16:27.459Z,9.10
2022-09-24T17:18:54.582Z,8.63
2022-09-24T17:21:21.327Z,9.17
2022-09-24T17:23:47.823Z,8.07
2022-09-24T17:26:17.366Z,8.60
2022-09-24T17:28:46.068Z,8.67
2022-09-24T17:31:15.775Z,7.47
2022-09-24T17:33:44.120Z,6.20
2022-09-24T17:36:14.045Z,8.73
2022-09-24T17:38:40.654Z,7.80
2022-09-24T17:41:11.467Z,7.13
2022-09-24T17:43:39.079Z,7.20
2022-09-24T17:46:14.441Z,7.40
2022-09-24T17:48:44.566Z,11.80
2022-09-24T17:51:12.466Z,11.37
2022-09-24T17:53:39.042Z,9.90
2022-09-24T17:56:07.356Z,8.07
2022-09-24T17:58:41.811Z,7.17
2022-09-24T18:01:11.319Z,7.47
2022-09-24T18:03:37.924Z,7.10
2022-09-24T18:06:07.368Z,8.77
2022-09-24T18:08:40.913Z,10.63
2022-09-24T18:11:14.899Z,9.40
2022-09-24T18:13:41.473Z,8.43
2022-09-24T18:16:16.352Z,9.60
2022-09-24T18:18:44.002Z,11.20
2022-09-24T18:21:12.770Z,10.80
2022-09-24T18:23:39.946Z,12.63
2022-09-24T18:26:12.058Z,13.90
2022-09-24T18:28:40.575Z,14.47
2022-09-24T18:31:08.990Z,12.23
2022-09-24T18:33:36.855Z,11.60
2022-09-24T18:36:05.537Z,11.53
2022-09-24T18:38:31.992Z,10.43
2022-09-24T18:40:59.818Z,10.80
2022-09-24T18:43:26.435Z,12.10
2022-09-24T18:45:53.806Z,9.87
2022-09-24T18:48:20.575Z,8.40
2022-09-24T18:50:47.047Z,8.30
2022-09-24T18:53:13.549Z,9.00
2022-09-24T18:55:41.473Z,7.70
2022-09-24T18:58:08.800Z,7.67
2022-09-24T19:00:51.002Z,7.67
2022-09-24T19:03:21.294Z,8.40
2022-09-24T19:05:49.373Z,8.13
2022-09-24T19:08:15.821Z,9.93
2022-09-24T19:10:42.745Z,9.07
2022-09-24T19:13:09.774Z,8.90
2022-09-24T19:15:40.609Z,7.90
2022-09-24T19:18:10.980Z,7.07
2022-09-24T19:20:38.501Z,6.37
2022-09-24T19:23:05.232Z,8.23
2022-09-24T19:25:32.966Z,12.10
2022-09-24T19:28:00.232Z,18.40
2022-09-24T19:30:27.601Z,17.40
2022-09-24T19:32:54.085Z,18.67
2022-09-24T19:35:20.867Z,17.90
2022-09-24T19:37:47.363Z,12.53
2022-09-24T19:40:14.004Z,12.00
2022-09-24T19:42:40.692Z,11.10
2022-09-24T19:45:07.689Z,10.17
2022-09-24T19:47:34.433Z,8.33
2022-09-24T19:50:00.873Z,7.97
2022-09-24T19:52:27.404Z,9.20
2022-09-24T19:54:54.014Z,9.50
2022-09-24T19:57:20.679Z,8.97
2022-09-24T19:59:47.242Z,10.13
2022-09-24T20:02:14.013Z,9.60
2022-09-24T20:04:41.508Z,10.20
2022-09-24T20:07:07.996Z,14.57
2022-09-24T20:09:34.502Z,15.10
2022-09-24T20:12:01.923Z,13.87
2022-09-24T20:14:33.423Z,14.10
2022-09-24T20:17:00.373Z,13.23
2022-09-24T20:19:26.882Z,14.17
2022-09-24T20:21:57.321Z,11.90
2022-09-24T20:24:23.860Z,13.47
2022-09-24T20:27:09.008Z,13.47
2022-09-24T20:29:35.521Z,14.60
2022-09-24T20:32:02.092Z,12.80
2022-09-24T20:34:33.461Z,12.77
2022-09-24T20:37:01.643Z,12.10
2022-09-24T20:39:29.488Z,12.20
2022-09-24T20:41:56.952Z,12.13
2022-09-24T20:44:25.251Z,13.80
2022-09-24T20:46:51.991Z,15.00
2022-09-24T20:49:23.344Z,13.30
2022-09-24T20:51:56.290Z,12.97
2022-09-24T20:54:24.469Z,22.40
2022-09-24T20:56:50.937Z,24.00
2022-09-24T20:59:17.363Z,19.80
2022-09-24T21:01:44.771Z,16.73
2022-09-24T21:04:11.803Z,17.00
2022-09-24T21:06:38.473Z,12.00
2022-09-24T21:09:05.145Z,9.40
2022-09-24T21:11:32.678Z,9.00
2022-09-24T21:14:03.026Z,8.90
2022-09-24T21:16:31.830Z,12.50
2022-09-24T21:18:58.920Z,10.13
2022-09-24T21:21:30.378Z,9.97
2022-09-24T21:23:58.876Z,9.40
2022-09-24T21:26:30.672Z,8.60
2022-09-24T21:29:07.694Z,10.20
2022-09-24T21:31:35.179Z,8.57
2022-09-24T21:34:01.749Z,9.30
2022-09-24T21:36:30.430Z,10.67
2022-09-24T21:39:12.795Z,11.63
2022-09-24T21:41:39.308Z,15.07
2022-09-24T21:44:07.576Z,12.43
2022-09-24T21:46:34.541Z,11.67
2022-09-24T21:49:02.271Z,11.70
2022-09-24T21:51:30.262Z,9.93
2022-09-24T21:54:01.905Z,9.07
2022-09-24T21:56:29.729Z,8.83
2022-09-24T21:58:56.931Z,9.23
2022-09-24T22:01:28.869Z,10.07
2022-09-24T22:03:57.212Z,9.83
2022-09-24T22:06:28.948Z,8.67
2022-09-24T22:08:58.012Z,8.87
2022-09-24T22:11:26.335Z,8.20
2022-09-24T22:13:53.655Z,8.40
2022-09-24T22:16:20.423Z,8.63
2022-09-24T22:18:46.998Z,7.27
2022-09-24T22:21:15.321Z,7.17
2022-09-24T22:23:41.840Z,9.50
2022-09-24T22:26:09.637Z,9.70
2022-09-24T22:28:38.115Z,8.90
2022-09-24T22:31:09.916Z,8.30
2022-09-24T22:33:55.665Z,8.27
2022-09-24T22:36:23.298Z,8.67
2022-09-24T22:38:54.085Z,9.20
2022-09-24T22:41:20.524Z,10.33
2022-09-24T22:43:47.137Z,13.90
2022-09-24T22:46:14.117Z,11.70
2022-09-24T22:48:40.868Z,10.97
2022-09-24T22:51:08.478Z,11.40
2022-09-24T22:53:36.572Z,10.27
2022-09-24T22:56:04.009Z,11.60
2022-09-24T22:58:30.826Z,9.50
2022-09-24T23:01:08.551Z,9.27
2022-09-24T23:03:36.385Z,10.43
2022-09-24T23:06:06.077Z,10.30
2022-09-24T23:08:33.829Z,10.00
2022-09-24T23:11:10.774Z,9.10
2022-09-24T23:13:38.868Z,8.57
2022-09-24T23:16:17.017Z,8.20
2022-09-24T23:18:45.835Z,7.23
2022-09-24T23:21:16.818Z,7.70
2022-09-24T23:23:44.231Z,7.43
2022-09-24T23:26:17.332Z,7.50
2022-09-24T23:28:46.128Z,7.43
2022-09-24T23:31:14.270Z,8.07
2022-09-24T23:33:41.763Z,10.13
2022-09-24T23:36:10.272Z,9.63
2022-09-24T23:38:37.095Z,9.30
2022-09-24T23:41:05.277Z,10.63
2022-09-24T23:43:32.689Z,11.03
2022-09-24T23:45:59.167Z,9.97
2022-09-24T23:48:25.847Z,11.73
2022-09-24T23:50:52.580Z,10.40
2022-09-24T23:53:21.827Z,9.80
2022-09-24T23:55:49.326Z,9.97
2022-09-24T23:58:18.325Z,11.77
